createdAt,value
2023-04-27T00:02:12.668Z,97342.78
2023-04-27T00:04:41.985Z,97344.71
2023-04-27T00:07:10.006Z,97348.41
2023-04-27T00:09:38.022Z,97350.02
2023-04-27T00:12:06.637Z,97354.42
2023-04-27T00:14:34.671Z,97361.03
2023-04-27T00:17:02.764Z,97363.20
2023-04-27T00:19:31.486Z,97363.20
2023-04-27T00:22:00.313Z,97365.96
2023-04-27T00:24:28.814Z,97367.63
2023-04-27T00:26:56.831Z,97365.48
2023-04-27T00:29:24.846Z,97366.02
2023-04-27T00:31:53.006Z,97364.58
2023-04-27T00:34:23.868Z,97377.14
2023-04-27T00:36:52.008Z,97376.02
2023-04-27T00:39:21.313Z,97377.38
2023-04-27T00:41:49.527Z,97375.16
2023-04-27T00:44:25.001Z,97377.05
2023-04-27T00:46:53.280Z,97377.65
2023-04-27T00:49:21.347Z,97376.09
2023-04-27T00:51:49.409Z,97375.63
2023-04-27T00:54:19.884Z,97376.44
2023-04-27T00:56:51.352Z,97377.27
2023-04-27T00:59:19.499Z,97379.35
2023-04-27T01:01:47.551Z,97379.89
2023-04-27T01:04:17.143Z,97382.86
2023-04-27T01:06:45.663Z,97384.73
2023-04-27T01:09:14.256Z,97386.30
2023-04-27T01:11:43.121Z,97388.03
2023-04-27T01:14:11.345Z,97393.34
2023-04-27T01:16:39.470Z,97394.73
2023-04-27T01:19:07.965Z,97396.84
2023-04-27T01:21:36.180Z,97397.27
2023-04-27T01:24:06.371Z,97398.67
2023-04-27T01:26:34.336Z,97399.54
2023-04-27T01:29:02.457Z,97398.95
2023-04-27T01:31:30.390Z,97403.89
2023-04-27T01:33:59.924Z,97402.11
2023-04-27T01:36:27.854Z,97402.55
2023-04-27T01:38:57.018Z,97404.48
2023-04-27T01:41:25.413Z,97406.11
2023-04-27T01:43:53.486Z,97406.98
2023-04-27T01:46:22.797Z,97405.67
2023-04-27T01:48:51.661Z,97406.92
2023-04-27T01:51:20.718Z,97409.29
2023-04-27T01:53:48.837Z,97407.79
2023-04-27T01:56:17.760Z,97409.40
2023-04-27T01:58:46.298Z,97408.17
2023-04-27T02:01:14.734Z,97410.91
2023-04-27T02:03:43.543Z,97410.90
2023-04-27T02:06:13.466Z,97411.02
2023-04-27T02:08:41.528Z,97407.10
2023-04-27T02:11:09.937Z,97409.79
2023-04-27T02:13:38.620Z,97416.39
2023-04-27T02:16:07.130Z,97419.08
2023-04-27T02:18:36.153Z,97422.45
2023-04-27T02:21:09.517Z,97421.83
2023-04-27T02:23:37.863Z,97423.95
2023-04-27T02:26:06.386Z,97426.45
2023-04-27T02:28:34.333Z,97432.13
2023-04-27T02:31:03.268Z,97433.48
2023-04-27T02:33:31.534Z,97434.02
2023-04-27T02:35:59.605Z,97437.23
2023-04-27T02:38:30.171Z,97441.97
2023-04-27T02:40:58.217Z,97440.95
2023-04-27T02:43:27.439Z,97439.44
2023-04-27T02:45:55.672Z,97441.45
2023-04-27T02:48:23.798Z,97439.25
2023-04-27T02:50:51.956Z,97438.69
2023-04-27T02:53:20.004Z,97444.84
2023-04-27T02:55:50.902Z,97448.15
2023-04-27T02:58:18.921Z,97448.96
2023-04-27T03:00:48.219Z,97456.06
2023-04-27T03:03:16.951Z,97463.41
2023-04-27T03:05:46.512Z,97466.27
2023-04-27T03:08:14.708Z,97467.30
2023-04-27T03:10:42.774Z,97473.54
2023-04-27T03:13:11.084Z,97466.89
2023-04-27T03:15:39.643Z,97469.36
2023-04-27T03:18:08.270Z,97468.45
2023-04-27T03:20:36.699Z,97467.98
2023-04-27T03:23:05.026Z,97466.91
2023-04-27T03:25:32.923Z,97469.06
2023-04-27T03:28:01.178Z,97470.85
2023-04-27T03:30:29.103Z,97477.13
2023-04-27T03:32:57.361Z,97481.42
2023-04-27T03:35:25.753Z,97480.52
2023-04-27T03:37:53.698Z,97479.40
2023-04-27T03:40:22.184Z,97478.15
2023-04-27T03:42:50.174Z,97479.50
2023-04-27T03:45:19.416Z,97478.71
2023-04-27T03:47:47.346Z,97477.66
2023-04-27T03:50:16.336Z,97485.09
2023-04-27T03:52:44.381Z,97489.33
2023-04-27T03:55:12.612Z,97490.84
2023-04-27T03:57:41.681Z,97493.10
2023-04-27T04:00:13.112Z,97499.94
2023-04-27T04:02:42.312Z,97505.02
2023-04-27T04:05:10.957Z,97509.02
2023-04-27T04:07:38.862Z,97508.80
2023-04-27T04:10:08.139Z,97506.05
2023-04-27T04:12:38.176Z,97508.73
2023-04-27T04:15:07.824Z,97520.34
2023-04-27T04:17:36.031Z,97524.55
2023-04-27T04:20:09.013Z,97524.21
2023-04-27T04:22:38.061Z,97530.29
2023-04-27T04:25:06.581Z,97533.67
2023-04-27T04:27:34.919Z,97533.30
2023-04-27T04:30:05.216Z,97534.77
2023-04-27T04:32:34.067Z,97534.91
2023-04-27T04:35:02.587Z,97539.07
2023-04-27T04:37:33.105Z,97543.10
2023-04-27T04:40:01.449Z,97545.31
2023-04-27T04:42:29.460Z,97550.13
2023-04-27T04:44:58.743Z,97553.03
2023-04-27T04:47:27.329Z,97555.36
2023-04-27T04:49:56.006Z,97553.88
2023-04-27T04:55:46.689Z,97558.27
2023-04-27T04:58:15.184Z,97563.55
2023-04-27T05:00:43.647Z,97563.14
2023-04-27T05:03:11.906Z,97568.91
2023-04-27T05:05:40.004Z,97567.93
2023-04-27T05:08:08.530Z,97573.46
2023-04-27T05:10:37.036Z,97576.30
2023-04-27T05:13:07.101Z,97577.20
2023-04-27T05:15:37.403Z,97579.36
2023-04-27T05:18:05.602Z,97582.18
2023-04-27T05:20:36.925Z,97581.09
2023-04-27T05:23:05.301Z,97586.33
2023-04-27T05:25:33.795Z,97590.77
2023-04-27T05:28:01.750Z,97588.29
2023-04-27T05:30:29.905Z,97586.91
2023-04-27T05:32:58.207Z,97589.27
2023-04-27T05:35:26.982Z,97583.73
2023-04-27T05:37:55.002Z,97586.55
2023-04-27T05:40:23.040Z,97585.25
2023-04-27T05:42:51.609Z,97591.45
2023-04-27T05:45:19.692Z,97594.66
2023-04-27T05:47:47.969Z,97590.20
2023-04-27T05:50:16.681Z,97589.05
2023-04-27T05:52:44.763Z,97592.80
2023-04-27T05:55:12.884Z,97593.36
2023-04-27T05:57:41.582Z,97591.84
2023-04-27T06:00:11.334Z,97599.23
2023-04-27T06:02:41.942Z,97600.04
2023-04-27T06:05:10.387Z,97600.98
2023-04-27T06:07:38.459Z,97602.42
2023-04-27T06:10:07.978Z,97605.08
2023-04-27T06:12:35.875Z,97603.39
2023-04-27T06:15:08.555Z,97600.75
2023-04-27T06:17:37.575Z,97599.88
2023-04-27T06:20:09.661Z,97601.18
2023-04-27T06:22:37.863Z,97601.98
2023-04-27T06:25:06.956Z,97596.77
2023-04-27T06:27:35.719Z,97597.71
2023-04-27T06:30:05.351Z,97596.16
2023-04-27T06:32:33.533Z,97586.96
2023-04-27T06:35:01.933Z,97593.37
2023-04-27T06:37:30.469Z,97592.40
2023-04-27T06:39:58.533Z,97589.14
2023-04-27T06:42:27.543Z,97595.01
2023-04-27T06:44:59.006Z,97591.84
2023-04-27T06:47:27.659Z,97590.30
2023-04-27T06:49:55.669Z,97590.83
2023-04-27T06:52:24.246Z,97594.38
2023-04-27T06:54:52.399Z,97592.27
2023-04-27T06:57:20.746Z,97589.25
2023-04-27T06:59:48.835Z,97590.17
2023-04-27T07:02:17.250Z,97584.44
2023-04-27T07:04:46.082Z,97587.46
2023-04-27T07:07:14.206Z,97588.67
2023-04-27T07:09:42.452Z,97586.81
2023-04-27T07:12:10.632Z,97582.32
2023-04-27T07:14:38.595Z,97581.48
2023-04-27T07:17:06.661Z,97574.29
2023-04-27T07:19:34.837Z,97572.95
2023-04-27T07:22:02.902Z,97572.97
2023-04-27T07:24:31.804Z,97570.73
2023-04-27T07:27:02.444Z,97570.24
2023-04-27T07:29:31.392Z,97568.88
2023-04-27T07:31:59.956Z,97573.52
2023-04-27T07:34:30.791Z,97569.09
2023-04-27T07:37:03.541Z,97570.92
2023-04-27T07:39:31.442Z,97568.01
2023-04-27T07:41:59.786Z,97567.59
2023-04-27T07:44:29.176Z,97566.95
2023-04-27T07:46:58.639Z,97570.12
2023-04-27T07:49:28.098Z,97562.45
2023-04-27T07:51:56.636Z,97563.91
2023-04-27T07:54:24.688Z,97567.80
2023-04-27T07:56:53.806Z,97568.10
2023-04-27T07:59:22.095Z,97566.45
2023-04-27T08:01:50.434Z,97569.45
2023-04-27T08:04:19.257Z,97569.05
2023-04-27T08:06:47.878Z,97566.55
2023-04-27T08:09:16.275Z,97566.35
2023-04-27T08:11:44.487Z,97568.27
2023-04-27T08:14:14.132Z,97565.56
2023-04-27T08:16:42.917Z,97564.95
2023-04-27T08:19:11.242Z,97562.53
2023-04-27T08:21:39.533Z,97557.73
2023-04-27T08:24:07.711Z,97559.27
2023-04-27T08:26:36.292Z,97564.04
2023-04-27T08:29:12.048Z,97563.02
2023-04-27T08:31:53.736Z,97559.23
2023-04-27T08:34:23.620Z,97555.19
2023-04-27T08:36:51.910Z,97557.48
2023-04-27T08:39:20.297Z,97557.86
2023-04-27T08:41:48.369Z,97556.85
2023-04-27T08:44:16.370Z,97549.80
2023-04-27T08:46:44.394Z,97548.20
2023-04-27T08:49:15.118Z,97546.86
2023-04-27T08:51:44.967Z,97540.67
2023-04-27T08:54:13.476Z,97542.40
2023-04-27T08:56:41.395Z,97541.70
2023-04-27T08:59:16.755Z,97544.11
2023-04-27T09:01:47.090Z,97535.71
2023-04-27T09:04:16.072Z,97530.17
2023-04-27T09:06:44.320Z,97529.30
2023-04-27T09:09:21.945Z,97530.79
2023-04-27T09:11:50.201Z,97532.88
2023-04-27T09:14:20.676Z,97529.26
2023-04-27T09:16:57.847Z,97521.83
2023-04-27T09:19:29.962Z,97526.31
2023-04-27T09:22:08.101Z,97531.98
2023-04-27T09:24:36.438Z,97526.11
2023-04-27T09:27:05.384Z,97527.26
2023-04-27T09:29:35.311Z,97528.02
2023-04-27T09:32:04.179Z,97527.72
2023-04-27T09:34:40.222Z,97531.89
2023-04-27T09:37:08.336Z,97530.29
2023-04-27T09:39:36.895Z,97529.75
2023-04-27T09:42:04.983Z,97529.30
2023-04-27T09:44:33.641Z,97529.99
2023-04-27T09:47:02.219Z,97529.45
2023-04-27T09:49:30.687Z,97532.40
2023-04-27T09:51:59.102Z,97534.11
2023-04-27T09:54:28.366Z,97532.48
2023-04-27T09:57:12.735Z,97533.45
2023-04-27T09:59:53.789Z,97530.62
2023-04-27T10:02:24.665Z,97528.36
2023-04-27T10:05:14.949Z,97528.27
2023-04-27T10:07:42.998Z,97528.57
2023-04-27T10:10:20.456Z,97526.21
2023-04-27T10:13:01.308Z,97520.80
2023-04-27T10:15:30.412Z,97519.94
2023-04-27T10:18:04.421Z,97520.02
2023-04-27T10:20:35.948Z,97519.94
2023-04-27T10:23:04.066Z,97523.42
2023-04-27T10:25:40.810Z,97526.76
2023-04-27T10:28:09.243Z,97527.67
2023-04-27T10:30:38.759Z,97526.91
2023-04-27T10:33:07.770Z,97526.00
2023-04-27T10:35:37.952Z,97531.41
2023-04-27T10:38:30.236Z,97532.48
2023-04-27T10:41:03.689Z,97536.41
2023-04-27T10:43:34.277Z,97537.34
2023-04-27T10:46:15.194Z,97538.55
2023-04-27T10:48:43.748Z,97539.14
2023-04-27T10:51:18.187Z,97540.34
2023-04-27T10:53:48.213Z,97539.96
2023-04-27T10:56:16.456Z,97540.16
2023-04-27T10:58:48.754Z,97537.53
2023-04-27T11:01:30.118Z,97542.36
2023-04-27T11:03:59.199Z,97544.84
2023-04-27T11:06:28.649Z,97545.20
2023-04-27T11:08:57.235Z,97546.61
2023-04-27T11:11:26.733Z,97544.98
2023-04-27T11:13:58.600Z,97546.17
2023-04-27T11:16:29.208Z,97546.14
2023-04-27T11:19:05.096Z,97552.06
2023-04-27T11:21:33.546Z,97552.98
2023-04-27T11:24:06.484Z,97553.73
2023-04-27T11:26:34.801Z,97553.39
2023-04-27T11:29:05.727Z,97552.27
2023-04-27T11:31:47.719Z,97556.81
2023-04-27T11:34:22.603Z,97556.02
2023-04-27T11:39:37.926Z,97561.67
2023-04-27T11:42:35.237Z,97560.77
2023-04-27T11:45:06.289Z,97563.23
2023-04-27T11:47:35.633Z,97560.42
2023-04-27T11:50:06.229Z,97559.58
2023-04-27T11:52:40.275Z,97561.06
2023-04-27T11:55:16.570Z,97557.29
2023-04-27T11:57:44.490Z,97554.94
2023-04-27T12:00:14.775Z,97553.48
2023-04-27T12:02:44.260Z,97555.21
2023-04-27T12:05:13.753Z,97559.08
2023-04-27T12:07:43.578Z,97559.03
2023-04-27T12:10:12.050Z,97560.05
2023-04-27T12:12:40.284Z,97559.05
2023-04-27T12:15:09.236Z,97555.23
2023-04-27T12:17:38.892Z,97556.34
2023-04-27T12:20:07.813Z,97559.19
2023-04-27T12:22:35.913Z,97557.31
2023-04-27T12:25:05.413Z,97555.21
2023-04-27T12:27:33.562Z,97553.07
2023-04-27T12:30:01.968Z,97550.55
2023-04-27T12:32:30.036Z,97551.29
2023-04-27T12:34:58.081Z,97547.11
2023-04-27T12:37:27.208Z,97548.14
2023-04-27T12:39:55.372Z,97553.63
2023-04-27T12:42:24.710Z,97551.73
2023-04-27T12:44:53.451Z,97551.58
2023-04-27T12:47:46.047Z,97551.66
2023-04-27T12:50:11.026Z,97550.16
2023-04-27T12:52:39.664Z,97552.84
2023-04-27T12:55:15.381Z,97554.09
2023-04-27T12:57:49.942Z,97555.48
2023-04-27T13:00:18.525Z,97557.80
2023-04-27T13:02:46.863Z,97558.78
2023-04-27T13:05:15.786Z,97554.42
2023-04-27T13:07:43.856Z,97554.65
2023-04-27T13:10:12.250Z,97550.09
2023-04-27T13:12:40.610Z,97550.91
2023-04-27T13:15:09.696Z,97546.01
2023-04-27T13:17:38.019Z,97545.52
2023-04-27T13:20:07.618Z,97538.94
2023-04-27T13:22:35.891Z,97537.77
2023-04-27T13:25:06.162Z,97538.63
2023-04-27T13:27:34.357Z,97539.54
2023-04-27T13:30:02.479Z,97542.81
2023-04-27T13:32:30.764Z,97544.91
2023-04-27T13:34:59.811Z,97545.40
2023-04-27T13:37:27.736Z,97548.42
2023-04-27T13:39:56.176Z,97545.94
2023-04-27T13:42:29.674Z,97548.41
2023-04-27T13:44:57.916Z,97545.15
2023-04-27T13:47:29.381Z,97547.75
2023-04-27T13:49:57.475Z,97552.74
2023-04-27T13:52:25.648Z,97548.70
2023-04-27T13:54:53.770Z,97550.59
2023-04-27T13:57:21.836Z,97550.81
2023-04-27T13:59:50.349Z,97553.48
2023-04-27T14:02:18.441Z,97552.53
2023-04-27T14:04:46.708Z,97550.39
2023-04-27T14:07:15.688Z,97553.66
2023-04-27T14:09:43.620Z,97555.34
2023-04-27T14:12:12.236Z,97560.00
2023-04-27T14:14:40.219Z,97559.30
2023-04-27T14:17:08.429Z,97563.29
2023-04-27T14:19:37.569Z,97563.01
2023-04-27T14:22:06.564Z,97566.23
2023-04-27T14:24:34.470Z,97570.05
2023-04-27T14:27:02.498Z,97569.18
2023-04-27T14:29:30.979Z,97573.63
2023-04-27T14:31:58.941Z,97577.27
2023-04-27T14:34:27.770Z,97580.81
2023-04-27T14:36:56.987Z,97582.48
2023-04-27T14:39:25.147Z,97584.99
2023-04-27T14:41:53.896Z,97590.73
2023-04-27T14:44:21.871Z,97588.80
2023-04-27T14:46:50.094Z,97592.94
2023-04-27T14:49:19.141Z,97593.35
2023-04-27T14:55:04.368Z,97597.31
2023-04-27T14:57:32.610Z,97602.86
2023-04-27T15:00:00.903Z,97605.59
2023-04-27T15:02:30.085Z,97605.31
2023-04-27T15:04:59.241Z,97606.58
2023-04-27T15:07:27.311Z,97609.63
2023-04-27T15:09:55.819Z,97613.23
2023-04-27T15:12:23.877Z,97617.39
2023-04-27T15:14:52.889Z,97616.81
2023-04-27T15:17:21.001Z,97616.84
2023-04-27T15:19:49.529Z,97614.88
2023-04-27T15:22:17.623Z,97618.68
2023-04-27T15:24:46.229Z,97617.42
2023-04-27T15:27:14.374Z,97619.65
2023-04-27T15:29:42.740Z,97621.96
2023-04-27T15:32:10.887Z,97618.98
2023-04-27T15:34:42.802Z,97625.32
2023-04-27T15:37:10.816Z,97624.82
2023-04-27T15:39:38.812Z,97628.98
2023-04-27T15:42:06.914Z,97630.77
2023-04-27T15:44:34.927Z,97633.00
2023-04-27T15:47:03.546Z,97637.30
2023-04-27T15:49:34.451Z,97640.73
2023-04-27T15:52:08.742Z,97643.46
2023-04-27T15:54:37.068Z,97645.98
2023-04-27T15:57:05.454Z,97649.20
2023-04-27T15:59:33.405Z,97654.04
2023-04-27T16:02:01.548Z,97657.05
2023-04-27T16:04:29.650Z,97661.88
2023-04-27T16:06:58.764Z,97667.21
2023-04-27T16:09:26.851Z,97669.54
2023-04-27T16:11:55.495Z,97676.56
2023-04-27T16:14:23.569Z,97676.27
2023-04-27T16:16:51.796Z,97677.94
2023-04-27T16:19:20.151Z,97682.02
2023-04-27T16:21:48.181Z,97685.63
2023-04-27T16:24:16.322Z,97683.52
2023-04-27T16:26:44.306Z,97687.36
2023-04-27T16:29:13.012Z,97690.05
2023-04-27T16:31:42.888Z,97690.63
2023-04-27T16:34:11.086Z,97693.73
2023-04-27T16:36:39.633Z,97696.66
2023-04-27T16:39:07.666Z,97696.67
2023-04-27T16:41:36.036Z,97704.64
2023-04-27T16:44:03.964Z,97701.59
2023-04-27T16:46:32.213Z,97705.19
2023-04-27T16:49:00.449Z,97708.98
2023-04-27T16:51:29.493Z,97709.04
2023-04-27T16:53:58.650Z,97708.63
2023-04-27T16:56:27.957Z,97711.13
2023-04-27T16:58:56.625Z,97716.02
2023-04-27T17:04:41.136Z,97718.46
2023-04-27T17:07:12.092Z,97724.36
2023-04-27T17:09:41.022Z,97728.18
2023-04-27T17:12:12.585Z,97729.89
2023-04-27T17:14:40.764Z,97729.04
2023-04-27T17:17:08.824Z,97730.67
2023-04-27T17:19:37.104Z,97734.43
2023-04-27T17:22:05.218Z,97739.16
2023-04-27T17:24:33.523Z,97740.25
2023-04-27T17:27:01.916Z,97741.13
2023-04-27T17:29:30.100Z,97742.65
2023-04-27T17:31:58.190Z,97749.21
2023-04-27T17:34:26.388Z,97753.79
2023-04-27T17:36:54.527Z,97760.94
2023-04-27T17:39:22.902Z,97759.55
2023-04-27T17:41:51.507Z,97766.55
2023-04-27T17:44:19.440Z,97772.85
2023-04-27T17:46:48.388Z,97780.89
2023-04-27T17:49:17.334Z,97784.98
2023-04-27T17:51:45.827Z,97786.30
2023-04-27T17:54:14.089Z,97793.27
2023-04-27T17:56:43.181Z,97800.05
2023-04-27T17:59:11.295Z,97802.88
2023-04-27T18:01:39.333Z,97804.48
2023-04-27T18:04:07.625Z,97804.40
2023-04-27T18:06:36.799Z,97808.83
2023-04-27T18:09:04.711Z,97813.27
2023-04-27T18:11:33.783Z,97818.36
2023-04-27T18:14:01.860Z,97821.29
2023-04-27T18:16:29.953Z,97827.24
2023-04-27T18:18:58.098Z,97827.20
2023-04-27T18:21:27.929Z,97834.13
2023-04-27T18:23:56.681Z,97835.02
2023-04-27T18:26:26.696Z,97839.38
2023-04-27T18:28:55.389Z,97842.97
2023-04-27T18:31:24.851Z,97847.91
2023-04-27T18:33:52.945Z,97850.77
2023-04-27T18:36:21.129Z,97852.16
2023-04-27T18:38:49.371Z,97854.38
2023-04-27T18:41:17.391Z,97856.70
2023-04-27T18:43:46.257Z,97856.27
2023-04-27T18:46:14.705Z,97862.63
2023-04-27T18:48:42.908Z,97865.52
2023-04-27T18:51:11.288Z,97868.27
2023-04-27T18:53:39.990Z,97869.21
2023-04-27T18:56:08.945Z,97871.27
2023-04-27T18:58:37.569Z,97873.05
2023-04-27T19:01:06.207Z,97873.02
2023-04-27T19:03:34.683Z,97876.73
2023-04-27T19:06:02.986Z,97881.16
2023-04-27T19:08:31.387Z,97878.51
2023-04-27T19:11:00.318Z,97882.45
2023-04-27T19:13:28.543Z,97885.09
2023-04-27T19:15:57.019Z,97884.24
2023-04-27T19:18:26.680Z,97884.36
2023-04-27T19:20:55.153Z,97883.73
2023-04-27T19:23:24.189Z,97885.46
2023-04-27T19:25:55.089Z,97888.05
2023-04-27T19:28:25.809Z,97883.85
2023-04-27T19:30:53.904Z,97886.67
2023-04-27T19:33:22.528Z,97883.66
2023-04-27T19:35:52.456Z,97885.50
2023-04-27T19:41:43.290Z,97877.40
2023-04-27T19:44:11.386Z,97883.27
2023-04-27T19:46:39.555Z,97880.39
2023-04-27T19:49:07.699Z,97880.90
2023-04-27T19:51:35.976Z,97879.14
2023-04-27T19:54:04.755Z,97881.42
2023-04-27T19:56:33.762Z,97881.05
2023-04-27T19:59:02.173Z,97884.15
2023-04-27T20:01:30.772Z,97882.56
2023-04-27T20:03:59.108Z,97882.96
2023-04-27T20:06:27.754Z,97884.83
2023-04-27T20:08:55.710Z,97884.36
2023-04-27T20:11:23.601Z,97883.95
2023-04-27T20:13:51.752Z,97885.61
2023-04-27T20:16:22.233Z,97887.86
2023-04-27T20:18:51.983Z,97885.17
2023-04-27T20:21:21.504Z,97882.70
2023-04-27T20:23:50.001Z,97884.42
2023-04-27T20:26:18.388Z,97885.54
2023-04-27T20:28:47.351Z,97884.64
2023-04-27T20:31:15.905Z,97888.77
2023-04-27T20:33:43.952Z,97888.33
2023-04-27T20:36:17.114Z,97889.23
2023-04-27T20:38:46.340Z,97894.40
2023-04-27T20:41:14.479Z,97894.65
2023-04-27T20:43:44.885Z,97897.77
2023-04-27T20:46:13.220Z,97896.64
2023-04-27T20:48:41.751Z,97897.13
2023-04-27T20:51:09.786Z,97897.05
2023-04-27T20:53:38.462Z,97898.71
2023-04-27T20:56:07.094Z,97903.50
2023-04-27T20:58:35.356Z,97901.61
2023-04-27T21:01:03.450Z,97906.45
2023-04-27T21:03:31.838Z,97908.21
2023-04-27T21:06:00.020Z,97909.02
2023-04-27T21:08:28.156Z,97912.54
2023-04-27T21:10:57.370Z,97913.74
2023-04-27T21:13:25.752Z,97915.65
2023-04-27T21:15:53.700Z,97918.75
2023-04-27T21:18:29.732Z,97921.61
2023-04-27T21:20:58.911Z,97924.75
2023-04-27T21:23:27.815Z,97927.90
2023-04-27T21:25:56.424Z,97928.09
2023-04-27T21:28:24.602Z,97929.89
2023-04-27T21:30:52.774Z,97927.51
2023-04-27T21:33:20.884Z,97930.16
2023-04-27T21:35:49.628Z,97934.60
2023-04-27T21:38:17.599Z,97933.83
2023-04-27T21:40:46.420Z,97932.75
2023-04-27T21:43:14.460Z,97938.54
2023-04-27T21:45:43.049Z,97938.30
2023-04-27T21:48:11.251Z,97940.86
2023-04-27T21:50:39.532Z,97943.81
2023-04-27T21:53:07.570Z,97941.95
2023-04-27T21:55:35.452Z,97941.47
2023-04-27T21:58:03.639Z,97944.29
2023-04-27T22:00:32.042Z,97947.63
2023-04-27T22:03:00.181Z,97947.42
2023-04-27T22:05:29.659Z,97947.20
2023-04-27T22:07:58.128Z,97948.66
2023-04-27T22:10:26.100Z,97954.38
2023-04-27T22:12:54.857Z,97956.64
2023-04-27T22:15:23.686Z,97957.72
2023-04-27T22:17:53.953Z,97958.33
2023-04-27T22:20:22.213Z,97963.70
2023-04-27T22:22:50.244Z,97966.41
2023-04-27T22:25:19.128Z,97965.36
2023-04-27T22:27:47.102Z,97971.75
2023-04-27T22:30:15.710Z,97977.16
2023-04-27T22:32:45.128Z,97976.77
2023-04-27T22:35:25.465Z,97975.56
2023-04-27T22:37:58.232Z,97976.17
2023-04-27T22:40:26.353Z,97983.32
2023-04-27T22:42:55.244Z,97982.04
2023-04-27T22:45:23.555Z,97982.51
2023-04-27T22:47:51.651Z,97985.73
2023-04-27T22:50:19.710Z,97985.69
2023-04-27T22:52:48.493Z,97983.73
2023-04-27T22:55:16.979Z,97982.11
2023-04-27T22:57:45.350Z,97983.92
2023-04-27T23:00:13.993Z,97980.74
2023-04-27T23:02:43.199Z,97983.55
2023-04-27T23:05:12.544Z,97983.71
2023-04-27T23:07:43.526Z,97983.55
2023-04-27T23:10:13.313Z,97982.23
2023-04-27T23:12:42.003Z,97983.23
2023-04-27T23:15:11.510Z,97985.48
2023-04-27T23:17:39.595Z,97984.09
2023-04-27T23:20:20.452Z,97984.33
2023-04-27T23:22:55.288Z,97988.38
2023-04-27T23:25:23.319Z,97986.27
2023-04-27T23:27:52.439Z,97989.24
2023-04-27T23:30:22.099Z,97991.35
2023-04-27T23:32:50.885Z,97989.77
2023-04-27T23:35:19.820Z,97991.38
2023-04-27T23:37:48.099Z,97992.13
2023-04-27T23:40:16.258Z,97991.45
2023-04-27T23:42:44.688Z,97994.45
2023-04-27T23:45:12.658Z,97993.30
2023-04-27T23:47:41.678Z,97994.52
2023-04-27T23:50:10.882Z,97993.67
2023-04-27T23:52:39.375Z,97995.02
2023-04-27T23:55:08.022Z,97992.44
2023-04-27T23:57:36.020Z,97999.06
